sensor_id;sensor_type;location;lat;lon;timestamp;P1;durP1;ratioP1;P2;durP2;ratioP2
37445;SDS011;23307;51.136;14.942;2022-08-11T00:00:43;4.05;;;3.63;;
37445;SDS011;23307;51.136;14.942;2022-08-11T00:03:11;4.50;;;3.85;;
37445;SDS011;23307;51.136;14.942;2022-08-11T00:05:44;5.05;;;4.13;;
37445;SDS011;23307;51.136;14.942;2022-08-11T00:08:28;5.70;;;3.88;;
37445;SDS011;23307;51.136;14.942;2022-08-11T00:10:59;5.97;;;3.85;;
37445;SDS011;23307;51.136;14.942;2022-08-11T00:13:34;3.95;;;3.45;;
37445;SDS011;23307;51.136;14.942;2022-08-11T00:16:02;4.03;;;3.50;;
37445;SDS011;23307;51.136;14.942;2022-08-11T00:18:41;4.13;;;3.50;;
37445;SDS011;23307;51.136;14.942;2022-08-11T00:21:08;5.75;;;3.38;;
37445;SDS011;23307;51.136;14.942;2022-08-11T00:23:38;6.82;;;3.40;;
37445;SDS011;23307;51.136;14.942;2022-08-11T00:26:10;7.25;;;3.75;;
37445;SDS011;23307;51.136;14.942;2022-08-11T00:28:37;5.72;;;3.90;;
37445;SDS011;23307;51.136;14.942;2022-08-11T00:31:04;4.22;;;3.78;;
37445;SDS011;23307;51.136;14.942;2022-08-11T00:33:42;6.45;;;3.90;;
37445;SDS011;23307;51.136;14.942;2022-08-11T00:36:09;5.22;;;4.00;;
37445;SDS011;23307;51.136;14.942;2022-08-11T00:38:39;4.68;;;4.13;;
37445;SDS011;23307;51.136;14.942;2022-08-11T00:46:41;5.70;;;4.25;;
37445;SDS011;23307;51.136;14.942;2022-08-11T00:49:17;6.30;;;3.92;;
37445;SDS011;23307;51.136;14.942;2022-08-11T00:52:00;5.88;;;4.20;;
37445;SDS011;23307;51.136;14.942;2022-08-11T01:00:31;6.03;;;4.82;;
37445;SDS011;23307;51.136;14.942;2022-08-11T01:03:04;4.80;;;4.30;;
37445;SDS011;23307;51.136;14.942;2022-08-11T01:06:10;6.18;;;4.65;;
37445;SDS011;23307;51.136;14.942;2022-08-11T01:09:11;4.43;;;4.03;;
37445;SDS011;23307;51.136;14.942;2022-08-11T01:26:34;4.50;;;4.10;;
37445;SDS011;23307;51.136;14.942;2022-08-11T01:35:18;4.88;;;4.45;;
37445;SDS011;23307;51.136;14.942;2022-08-11T01:37:56;5.95;;;4.30;;
37445;SDS011;23307;51.136;14.942;2022-08-11T01:40:51;6.15;;;4.53;;
37445;SDS011;23307;51.136;14.942;2022-08-11T01:43:47;4.82;;;4.32;;
37445;SDS011;23307;51.136;14.942;2022-08-11T01:55:48;4.53;;;4.13;;
37445;SDS011;23307;51.136;14.942;2022-08-11T02:01:24;4.68;;;4.20;;
37445;SDS011;23307;51.136;14.942;2022-08-11T02:04:16;5.93;;;4.65;;
37445;SDS011;23307;51.136;14.942;2022-08-11T02:10:29;4.93;;;4.47;;
37445;SDS011;23307;51.136;14.942;2022-08-11T02:16:16;9.45;;;4.68;;
37445;SDS011;23307;51.136;14.942;2022-08-11T02:18:51;6.15;;;5.15;;
37445;SDS011;23307;51.136;14.942;2022-08-11T02:21:51;5.25;;;4.70;;
37445;SDS011;23307;51.136;14.942;2022-08-11T02:24:53;4.93;;;4.43;;
37445;SDS011;23307;51.136;14.942;2022-08-11T02:27:26;6.47;;;5.25;;
37445;SDS011;23307;51.136;14.942;2022-08-11T02:30:06;5.47;;;4.63;;
37445;SDS011;23307;51.136;14.942;2022-08-11T02:35:41;7.57;;;5.10;;
37445;SDS011;23307;51.136;14.942;2022-08-11T02:38:20;5.30;;;4.80;;
37445;SDS011;23307;51.136;14.942;2022-08-11T02:41:15;5.40;;;4.88;;
37445;SDS011;23307;51.136;14.942;2022-08-11T02:44:26;6.35;;;5.00;;
37445;SDS011;23307;51.136;14.942;2022-08-11T02:47:08;6.20;;;5.05;;
37445;SDS011;23307;51.136;14.942;2022-08-11T02:49:59;5.32;;;4.93;;
37445;SDS011;23307;51.136;14.942;2022-08-11T02:55:26;6.22;;;4.80;;
37445;SDS011;23307;51.136;14.942;2022-08-11T03:01:12;5.43;;;4.93;;
37445;SDS011;23307;51.136;14.942;2022-08-11T03:06:51;6.55;;;4.78;;
37445;SDS011;23307;51.136;14.942;2022-08-11T03:09:44;6.72;;;4.70;;
37445;SDS011;23307;51.136;14.942;2022-08-11T03:12:16;5.78;;;5.00;;
37445;SDS011;23307;51.136;14.942;2022-08-11T03:21:23;5.10;;;4.60;;
37445;SDS011;23307;51.136;14.942;2022-08-11T03:23:58;5.65;;;5.07;;
37445;SDS011;23307;51.136;14.942;2022-08-11T03:27:27;6.60;;;5.03;;
37445;SDS011;23307;51.136;14.942;2022-08-11T03:29:46;6.78;;;5.03;;
37445;SDS011;23307;51.136;14.942;2022-08-11T03:32:50;6.28;;;4.85;;
37445;SDS011;23307;51.136;14.942;2022-08-11T03:38:58;6.80;;;4.53;;
37445;SDS011;23307;51.136;14.942;2022-08-11T03:41:40;5.30;;;4.80;;
37445;SDS011;23307;51.136;14.942;2022-08-11T03:47:17;5.18;;;4.68;;
37445;SDS011;23307;51.136;14.942;2022-08-11T03:50:03;5.55;;;4.95;;
37445;SDS011;23307;51.136;14.942;2022-08-11T03:52:48;5.43;;;4.90;;
37445;SDS011;23307;51.136;14.942;2022-08-11T03:55:39;4.72;;;4.30;;
37445;SDS011;23307;51.136;14.942;2022-08-11T04:04:13;5.05;;;4.53;;
37445;SDS011;23307;51.136;14.942;2022-08-11T04:07:38;6.43;;;4.47;;
37445;SDS011;23307;51.136;14.942;2022-08-11T04:10:05;4.60;;;4.20;;
37445;SDS011;23307;51.136;14.942;2022-08-11T04:21:17;5.28;;;4.72;;
37445;SDS011;23307;51.136;14.942;2022-08-11T04:24:22;6.28;;;4.57;;
37445;SDS011;23307;51.136;14.942;2022-08-11T04:30:03;5.28;;;4.68;;
37445;SDS011;23307;51.136;14.942;2022-08-11T04:35:31;5.03;;;4.63;;
37445;SDS011;23307;51.136;14.942;2022-08-11T04:47:09;5.32;;;4.82;;
37445;SDS011;23307;51.136;14.942;2022-08-11T04:50:07;5.60;;;5.10;;
37445;SDS011;23307;51.136;14.942;2022-08-11T04:53:45;7.30;;;4.72;;
37445;SDS011;23307;51.136;14.942;2022-08-11T04:56:34;6.88;;;4.82;;
37445;SDS011;23307;51.136;14.942;2022-08-11T05:03:02;5.18;;;4.68;;
37445;SDS011;23307;51.136;14.942;2022-08-11T05:06:04;6.28;;;5.03;;
37445;SDS011;23307;51.136;14.942;2022-08-11T05:08:48;5.70;;;5.20;;
37445;SDS011;23307;51.136;14.942;2022-08-11T05:14:23;6.25;;;5.65;;
37445;SDS011;23307;51.136;14.942;2022-08-11T05:17:13;6.05;;;4.82;;
37445;SDS011;23307;51.136;14.942;2022-08-11T05:20:08;5.45;;;4.88;;
37445;SDS011;23307;51.136;14.942;2022-08-11T05:22:53;5.72;;;4.82;;
37445;SDS011;23307;51.136;14.942;2022-08-11T05:25:41;8.15;;;5.53;;
37445;SDS011;23307;51.136;14.942;2022-08-11T05:28:32;7.80;;;5.40;;
37445;SDS011;23307;51.136;14.942;2022-08-11T05:31:21;5.43;;;4.93;;
37445;SDS011;23307;51.136;14.942;2022-08-11T05:34:15;5.53;;;5.03;;
37445;SDS011;23307;51.136;14.942;2022-08-11T05:37:05;6.55;;;4.60;;
37445;SDS011;23307;51.136;14.942;2022-08-11T05:39:40;7.03;;;5.30;;
37445;SDS011;23307;51.136;14.942;2022-08-11T05:42:31;5.47;;;4.97;;
37445;SDS011;23307;51.136;14.942;2022-08-11T05:45:19;6.22;;;5.45;;
37445;SDS011;23307;51.136;14.942;2022-08-11T05:48:04;5.85;;;4.80;;
37445;SDS011;23307;51.136;14.942;2022-08-11T05:50:49;8.63;;;5.53;;
37445;SDS011;23307;51.136;14.942;2022-08-11T05:53:43;7.25;;;5.35;;
37445;SDS011;23307;51.136;14.942;2022-08-11T05:56:30;8.07;;;5.32;;
37445;SDS011;23307;51.136;14.942;2022-08-11T05:58:57;7.20;;;5.15;;
37445;SDS011;23307;51.136;14.942;2022-08-11T06:01:27;5.45;;;4.25;;
37445;SDS011;23307;51.136;14.942;2022-08-11T06:03:56;6.32;;;4.45;;
37445;SDS011;23307;51.136;14.942;2022-08-11T06:06:38;4.30;;;3.90;;
37445;SDS011;23307;51.136;14.942;2022-08-11T06:09:10;5.45;;;4.00;;
37445;SDS011;23307;51.136;14.942;2022-08-11T06:11:38;5.10;;;3.85;;
37445;SDS011;23307;51.136;14.942;2022-08-11T06:14:07;4.70;;;3.85;;
37445;SDS011;23307;51.136;14.942;2022-08-11T06:16:37;4.18;;;3.50;;
37445;SDS011;23307;51.136;14.942;2022-08-11T06:19:05;6.45;;;3.80;;
37445;SDS011;23307;51.136;14.942;2022-08-11T06:21:33;5.72;;;3.83;;
37445;SDS011;23307;51.136;14.942;2022-08-11T06:24:00;3.75;;;3.45;;
37445;SDS011;23307;51.136;14.942;2022-08-11T06:26:29;4.93;;;3.42;;
37445;SDS011;23307;51.136;14.942;2022-08-11T06:28:56;7.22;;;3.33;;
37445;SDS011;23307;51.136;14.942;2022-08-11T06:31:23;3.45;;;3.10;;
37445;SDS011;23307;51.136;14.942;2022-08-11T06:33:55;5.30;;;3.20;;
37445;SDS011;23307;51.136;14.942;2022-08-11T06:36:37;3.38;;;3.05;;
37445;SDS011;23307;51.136;14.942;2022-08-11T06:39:21;5.10;;;2.90;;
37445;SDS011;23307;51.136;14.942;2022-08-11T06:44:42;4.47;;;3.10;;
37445;SDS011;23307;51.136;14.942;2022-08-11T06:47:14;5.28;;;3.20;;
37445;SDS011;23307;51.136;14.942;2022-08-11T06:49:43;7.88;;;3.55;;
37445;SDS011;23307;51.136;14.942;2022-08-11T06:52:32;3.45;;;2.88;;
37445;SDS011;23307;51.136;14.942;2022-08-11T06:55:05;4.13;;;2.90;;
37445;SDS011;23307;51.136;14.942;2022-08-11T06:57:35;4.40;;;2.90;;
37445;SDS011;23307;51.136;14.942;2022-08-11T07:00:21;3.95;;;3.25;;
37445;SDS011;23307;51.136;14.942;2022-08-11T07:02:58;6.22;;;2.95;;
37445;SDS011;23307;51.136;14.942;2022-08-11T07:05:44;4.30;;;2.80;;
37445;SDS011;23307;51.136;14.942;2022-08-11T07:11:40;3.83;;;2.75;;
37445;SDS011;23307;51.136;14.942;2022-08-11T07:14:29;5.38;;;2.88;;
37445;SDS011;23307;51.136;14.942;2022-08-11T07:17:14;3.38;;;2.60;;
37445;SDS011;23307;51.136;14.942;2022-08-11T07:19:46;6.63;;;3.08;;
37445;SDS011;23307;51.136;14.942;2022-08-11T07:22:39;4.75;;;2.60;;
37445;SDS011;23307;51.136;14.942;2022-08-11T07:25:26;7.00;;;2.85;;
37445;SDS011;23307;51.136;14.942;2022-08-11T07:28:20;4.43;;;2.58;;
37445;SDS011;23307;51.136;14.942;2022-08-11T07:31:07;7.05;;;3.08;;
37445;SDS011;23307;51.136;14.942;2022-08-11T07:33:43;4.03;;;2.67;;
37445;SDS011;23307;51.136;14.942;2022-08-11T07:36:16;4.38;;;2.65;;
37445;SDS011;23307;51.136;14.942;2022-08-11T07:38:43;5.30;;;2.45;;
37445;SDS011;23307;51.136;14.942;2022-08-11T07:41:15;4.57;;;2.20;;
37445;SDS011;23307;51.136;14.942;2022-08-11T07:43:43;3.83;;;2.17;;
37445;SDS011;23307;51.136;14.942;2022-08-11T07:46:13;2.97;;;1.70;;
37445;SDS011;23307;51.136;14.942;2022-08-11T07:48:58;2.95;;;1.83;;
37445;SDS011;23307;51.136;14.942;2022-08-11T07:51:44;3.40;;;1.55;;
37445;SDS011;23307;51.136;14.942;2022-08-11T07:54:29;4.90;;;1.70;;
37445;SDS011;23307;51.136;14.942;2022-08-11T07:56:54;1.40;;;1.30;;
37445;SDS011;23307;51.136;14.942;2022-08-11T07:59:21;3.47;;;1.30;;
37445;SDS011;23307;51.136;14.942;2022-08-11T08:02:07;2.55;;;1.45;;
37445;SDS011;23307;51.136;14.942;2022-08-11T08:04:53;1.48;;;1.38;;
37445;SDS011;23307;51.136;14.942;2022-08-11T08:07:38;1.58;;;1.30;;
37445;SDS011;23307;51.136;14.942;2022-08-11T08:10:22;3.95;;;1.67;;
37445;SDS011;23307;51.136;14.942;2022-08-11T08:13:06;1.35;;;1.15;;
37445;SDS011;23307;51.136;14.942;2022-08-11T08:15:51;1.30;;;1.20;;
37445;SDS011;23307;51.136;14.942;2022-08-11T08:18:36;1.77;;;1.50;;
37445;SDS011;23307;51.136;14.942;2022-08-11T08:21:03;1.60;;;1.30;;
37445;SDS011;23307;51.136;14.942;2022-08-11T08:23:37;2.00;;;1.35;;
37445;SDS011;23307;51.136;14.942;2022-08-11T08:26:08;1.60;;;1.38;;
37445;SDS011;23307;51.136;14.942;2022-08-11T08:28:55;1.23;;;1.10;;
37445;SDS011;23307;51.136;14.942;2022-08-11T08:31:45;1.40;;;1.30;;
37445;SDS011;23307;51.136;14.942;2022-08-11T08:34:12;2.10;;;1.30;;
37445;SDS011;23307;51.136;14.942;2022-08-11T08:36:41;2.17;;;1.50;;
37445;SDS011;23307;51.136;14.942;2022-08-11T08:39:08;1.48;;;1.27;;
37445;SDS011;23307;51.136;14.942;2022-08-11T08:41:37;2.55;;;1.33;;
37445;SDS011;23307;51.136;14.942;2022-08-11T08:44:07;3.65;;;1.50;;
37445;SDS011;23307;51.136;14.942;2022-08-11T08:46:36;2.67;;;1.60;;
37445;SDS011;23307;51.136;14.942;2022-08-11T08:49:06;2.95;;;1.50;;
37445;SDS011;23307;51.136;14.942;2022-08-11T08:51:38;1.85;;;1.20;;
37445;SDS011;23307;51.136;14.942;2022-08-11T08:54:13;2.17;;;1.50;;
37445;SDS011;23307;51.136;14.942;2022-08-11T08:56:43;2.75;;;1.80;;
37445;SDS011;23307;51.136;14.942;2022-08-11T08:59:10;1.90;;;1.58;;
37445;SDS011;23307;51.136;14.942;2022-08-11T09:01:49;4.50;;;1.90;;
37445;SDS011;23307;51.136;14.942;2022-08-11T09:04:19;2.90;;;1.63;;
37445;SDS011;23307;51.136;14.942;2022-08-11T09:06:45;1.50;;;1.25;;
37445;SDS011;23307;51.136;14.942;2022-08-11T09:09:12;2.15;;;1.70;;
37445;SDS011;23307;51.136;14.942;2022-08-11T09:11:38;1.55;;;1.25;;
37445;SDS011;23307;51.136;14.942;2022-08-11T09:14:33;3.40;;;1.40;;
37445;SDS011;23307;51.136;14.942;2022-08-11T09:17:23;2.83;;;1.50;;
37445;SDS011;23307;51.136;14.942;2022-08-11T09:19:53;2.60;;;1.50;;
37445;SDS011;23307;51.136;14.942;2022-08-11T09:22:24;1.90;;;1.45;;
37445;SDS011;23307;51.136;14.942;2022-08-11T09:25:09;2.47;;;1.70;;
37445;SDS011;23307;51.136;14.942;2022-08-11T09:27:54;2.55;;;1.60;;
37445;SDS011;23307;51.136;14.942;2022-08-11T09:30:21;1.90;;;1.60;;
37445;SDS011;23307;51.136;14.942;2022-08-11T09:32:56;2.70;;;1.67;;
37445;SDS011;23307;51.136;14.942;2022-08-11T09:35:26;1.80;;;1.40;;
37445;SDS011;23307;51.136;14.942;2022-08-11T09:37:53;3.25;;;1.50;;
37445;SDS011;23307;51.136;14.942;2022-08-11T09:40:40;1.33;;;1.23;;
37445;SDS011;23307;51.136;14.942;2022-08-11T09:43:09;3.38;;;1.60;;
37445;SDS011;23307;51.136;14.942;2022-08-11T09:45:54;2.40;;;1.55;;
37445;SDS011;23307;51.136;14.942;2022-08-11T09:48:22;3.28;;;1.80;;
37445;SDS011;23307;51.136;14.942;2022-08-11T09:50:53;3.22;;;2.05;;
37445;SDS011;23307;51.136;14.942;2022-08-11T09:53:20;3.67;;;1.55;;
37445;SDS011;23307;51.136;14.942;2022-08-11T09:55:47;1.73;;;1.60;;
37445;SDS011;23307;51.136;14.942;2022-08-11T09:58:14;2.15;;;1.90;;
37445;SDS011;23307;51.136;14.942;2022-08-11T10:00:42;1.92;;;1.73;;
37445;SDS011;23307;51.136;14.942;2022-08-11T10:03:10;4.07;;;1.70;;
37445;SDS011;23307;51.136;14.942;2022-08-11T10:05:44;3.45;;;1.88;;
37445;SDS011;23307;51.136;14.942;2022-08-11T10:08:31;2.72;;;1.60;;
37445;SDS011;23307;51.136;14.942;2022-08-11T10:10:58;2.58;;;1.80;;
37445;SDS011;23307;51.136;14.942;2022-08-11T10:13:26;2.00;;;1.73;;
37445;SDS011;23307;51.136;14.942;2022-08-11T10:16:00;3.13;;;1.80;;
37445;SDS011;23307;51.136;14.942;2022-08-11T10:18:39;4.22;;;1.50;;
37445;SDS011;23307;51.136;14.942;2022-08-11T10:23:53;1.90;;;1.50;;
37445;SDS011;23307;51.136;14.942;2022-08-11T10:26:41;2.13;;;1.27;;
37445;SDS011;23307;51.136;14.942;2022-08-11T10:32:10;1.95;;;1.40;;
37445;SDS011;23307;51.136;14.942;2022-08-11T10:34:55;2.33;;;1.60;;
37445;SDS011;23307;51.136;14.942;2022-08-11T10:37:23;2.55;;;1.60;;
37445;SDS011;23307;51.136;14.942;2022-08-11T10:39:49;2.60;;;1.40;;
37445;SDS011;23307;51.136;14.942;2022-08-11T10:42:16;1.90;;;1.60;;
37445;SDS011;23307;51.136;14.942;2022-08-11T10:45:03;3.92;;;1.35;;
37445;SDS011;23307;51.136;14.942;2022-08-11T10:47:51;2.95;;;1.50;;
37445;SDS011;23307;51.136;14.942;2022-08-11T10:50:19;3.63;;;1.50;;
37445;SDS011;23307;51.136;14.942;2022-08-11T10:53:04;2.40;;;1.48;;
37445;SDS011;23307;51.136;14.942;2022-08-11T10:55:50;2.92;;;1.52;;
37445;SDS011;23307;51.136;14.942;2022-08-11T10:58:35;2.55;;;1.30;;
37445;SDS011;23307;51.136;14.942;2022-08-11T11:01:12;2.05;;;1.40;;
37445;SDS011;23307;51.136;14.942;2022-08-11T11:03:49;1.63;;;1.52;;
37445;SDS011;23307;51.136;14.942;2022-08-11T11:09:12;1.45;;;1.35;;
37445;SDS011;23307;51.136;14.942;2022-08-11T11:11:42;1.98;;;1.50;;
37445;SDS011;23307;51.136;14.942;2022-08-11T11:14:36;3.20;;;1.42;;
37445;SDS011;23307;51.136;14.942;2022-08-11T11:17:26;2.33;;;1.42;;
37445;SDS011;23307;51.136;14.942;2022-08-11T11:20:29;2.03;;;1.33;;
37445;SDS011;23307;51.136;14.942;2022-08-11T11:23:04;1.60;;;1.50;;
37445;SDS011;23307;51.136;14.942;2022-08-11T11:28:47;1.92;;;1.33;;
37445;SDS011;23307;51.136;14.942;2022-08-11T11:31:38;1.60;;;1.50;;
37445;SDS011;23307;51.136;14.942;2022-08-11T11:34:50;4.45;;;1.65;;
37445;SDS011;23307;51.136;14.942;2022-08-11T11:37:35;2.53;;;1.60;;
37445;SDS011;23307;51.136;14.942;2022-08-11T11:40:07;3.67;;;1.50;;
37445;SDS011;23307;51.136;14.942;2022-08-11T11:42:35;3.70;;;1.40;;
37445;SDS011;23307;51.136;14.942;2022-08-11T11:45:09;3.15;;;1.40;;
37445;SDS011;23307;51.136;14.942;2022-08-11T11:47:38;2.65;;;1.33;;
37445;SDS011;23307;51.136;14.942;2022-08-11T11:50:06;2.15;;;1.30;;
37445;SDS011;23307;51.136;14.942;2022-08-11T11:52:32;1.35;;;1.10;;
37445;SDS011;23307;51.136;14.942;2022-08-11T11:54:59;2.60;;;1.50;;
37445;SDS011;23307;51.136;14.942;2022-08-11T11:57:26;2.33;;;1.15;;
37445;SDS011;23307;51.136;14.942;2022-08-11T12:00:11;3.17;;;1.20;;
37445;SDS011;23307;51.136;14.942;2022-08-11T12:02:59;2.50;;;1.25;;
37445;SDS011;23307;51.136;14.942;2022-08-11T12:05:26;2.55;;;1.33;;
37445;SDS011;23307;51.136;14.942;2022-08-11T12:07:53;1.30;;;1.20;;
37445;SDS011;23307;51.136;14.942;2022-08-11T12:10:43;2.00;;;1.10;;
37445;SDS011;23307;51.136;14.942;2022-08-11T12:13:14;3.53;;;1.17;;
37445;SDS011;23307;51.136;14.942;2022-08-11T12:16:00;1.70;;;1.13;;
37445;SDS011;23307;51.136;14.942;2022-08-11T12:18:29;1.48;;;1.20;;
37445;SDS011;23307;51.136;14.942;2022-08-11T12:20:59;1.60;;;1.10;;
37445;SDS011;23307;51.136;14.942;2022-08-11T12:23:26;4.47;;;1.50;;
37445;SDS011;23307;51.136;14.942;2022-08-11T12:26:12;2.00;;;1.27;;
37445;SDS011;23307;51.136;14.942;2022-08-11T12:28:58;2.97;;;1.40;;
37445;SDS011;23307;51.136;14.942;2022-08-11T12:31:25;2.42;;;1.20;;
37445;SDS011;23307;51.136;14.942;2022-08-11T12:33:58;1.73;;;1.23;;
37445;SDS011;23307;51.136;14.942;2022-08-11T12:36:25;1.77;;;1.13;;
37445;SDS011;23307;51.136;14.942;2022-08-11T12:38:51;1.17;;;1.08;;
37445;SDS011;23307;51.136;14.942;2022-08-11T12:41:19;4.65;;;1.10;;
37445;SDS011;23307;51.136;14.942;2022-08-11T12:44:04;2.55;;;1.30;;
37445;SDS011;23307;51.136;14.942;2022-08-11T12:46:51;1.73;;;1.00;;
37445;SDS011;23307;51.136;14.942;2022-08-11T12:49:18;1.55;;;1.15;;
37445;SDS011;23307;51.136;14.942;2022-08-11T12:52:07;5.25;;;1.00;;
37445;SDS011;23307;51.136;14.942;2022-08-11T12:57:31;3.40;;;1.15;;
37445;SDS011;23307;51.136;14.942;2022-08-11T13:00:18;1.40;;;1.25;;
37445;SDS011;23307;51.136;14.942;2022-08-11T13:03:04;1.58;;;1.10;;
37445;SDS011;23307;51.136;14.942;2022-08-11T13:05:52;1.20;;;0.98;;
37445;SDS011;23307;51.136;14.942;2022-08-11T13:08:21;1.20;;;1.10;;
37445;SDS011;23307;51.136;14.942;2022-08-11T13:10:49;2.60;;;1.10;;
37445;SDS011;23307;51.136;14.942;2022-08-11T13:13:36;1.00;;;0.90;;
37445;SDS011;23307;51.136;14.942;2022-08-11T13:16:03;1.20;;;1.10;;
37445;SDS011;23307;51.136;14.942;2022-08-11T13:18:30;3.45;;;1.00;;
37445;SDS011;23307;51.136;14.942;2022-08-11T13:20:56;1.70;;;1.00;;
37445;SDS011;23307;51.136;14.942;2022-08-11T13:23:23;1.88;;;0.93;;
37445;SDS011;23307;51.136;14.942;2022-08-11T13:25:53;2.75;;;1.02;;
37445;SDS011;23307;51.136;14.942;2022-08-11T13:28:19;1.38;;;0.98;;
37445;SDS011;23307;51.136;14.942;2022-08-11T13:30:48;1.38;;;0.90;;
37445;SDS011;23307;51.136;14.942;2022-08-11T13:33:34;1.20;;;1.00;;
37445;SDS011;23307;51.136;14.942;2022-08-11T13:36:04;1.25;;;1.02;;
37445;SDS011;23307;51.136;14.942;2022-08-11T13:38:30;2.50;;;1.00;;
37445;SDS011;23307;51.136;14.942;2022-08-11T13:40:56;1.48;;;1.10;;
37445;SDS011;23307;51.136;14.942;2022-08-11T13:43:22;2.00;;;0.93;;
37445;SDS011;23307;51.136;14.942;2022-08-11T13:45:48;1.35;;;1.08;;
37445;SDS011;23307;51.136;14.942;2022-08-11T13:48:16;1.30;;;1.00;;
37445;SDS011;23307;51.136;14.942;2022-08-11T13:50:43;3.58;;;1.00;;
37445;SDS011;23307;51.136;14.942;2022-08-11T13:53:28;2.75;;;1.00;;
37445;SDS011;23307;51.136;14.942;2022-08-11T13:55:56;1.42;;;0.90;;
37445;SDS011;23307;51.136;14.942;2022-08-11T13:58:24;1.40;;;1.17;;
37445;SDS011;23307;51.136;14.942;2022-08-11T14:00:51;1.42;;;1.00;;
37445;SDS011;23307;51.136;14.942;2022-08-11T14:03:20;1.35;;;1.20;;
37445;SDS011;23307;51.136;14.942;2022-08-11T14:05:50;1.15;;;1.00;;
37445;SDS011;23307;51.136;14.942;2022-08-11T14:08:27;2.03;;;1.10;;
37445;SDS011;23307;51.136;14.942;2022-08-11T14:10:58;2.25;;;1.13;;
37445;SDS011;23307;51.136;14.942;2022-08-11T14:13:45;1.42;;;1.00;;
37445;SDS011;23307;51.136;14.942;2022-08-11T14:16:27;1.20;;;0.90;;
37445;SDS011;23307;51.136;14.942;2022-08-11T14:19:05;0.95;;;0.90;;
37445;SDS011;23307;51.136;14.942;2022-08-11T14:21:35;2.67;;;1.00;;
37445;SDS011;23307;51.136;14.942;2022-08-11T14:24:23;2.10;;;1.08;;
37445;SDS011;23307;51.136;14.942;2022-08-11T14:26:50;2.40;;;0.95;;
37445;SDS011;23307;51.136;14.942;2022-08-11T14:29:18;1.33;;;1.10;;
37445;SDS011;23307;51.136;14.942;2022-08-11T14:31:45;2.05;;;1.08;;
37445;SDS011;23307;51.136;14.942;2022-08-11T14:34:19;1.25;;;1.15;;
37445;SDS011;23307;51.136;14.942;2022-08-11T14:36:48;1.55;;;1.10;;
37445;SDS011;23307;51.136;14.942;2022-08-11T14:39:25;2.47;;;1.17;;
37445;SDS011;23307;51.136;14.942;2022-08-11T14:42:00;2.03;;;0.88;;
37445;SDS011;23307;51.136;14.942;2022-08-11T14:45:08;1.23;;;1.08;;
37445;SDS011;23307;51.136;14.942;2022-08-11T14:47:59;2.30;;;1.27;;
37445;SDS011;23307;51.136;14.942;2022-08-11T14:50:27;3.17;;;1.17;;
37445;SDS011;23307;51.136;14.942;2022-08-11T14:52:55;0.98;;;0.98;;
37445;SDS011;23307;51.136;14.942;2022-08-11T14:55:24;1.40;;;1.10;;
37445;SDS011;23307;51.136;14.942;2022-08-11T14:58:16;1.33;;;0.95;;
37445;SDS011;23307;51.136;14.942;2022-08-11T15:00:43;1.63;;;1.17;;
37445;SDS011;23307;51.136;14.942;2022-08-11T15:03:09;1.40;;;1.00;;
37445;SDS011;23307;51.136;14.942;2022-08-11T15:05:38;1.55;;;1.00;;
37445;SDS011;23307;51.136;14.942;2022-08-11T15:08:15;1.63;;;1.05;;
37445;SDS011;23307;51.136;14.942;2022-08-11T15:10:42;0.98;;;0.95;;
37445;SDS011;23307;51.136;14.942;2022-08-11T15:13:09;0.98;;;0.95;;
37445;SDS011;23307;51.136;14.942;2022-08-11T15:15:35;1.83;;;1.15;;
37445;SDS011;23307;51.136;14.942;2022-08-11T15:18:21;1.42;;;1.10;;
37445;SDS011;23307;51.136;14.942;2022-08-11T15:20:48;2.55;;;1.10;;
37445;SDS011;23307;51.136;14.942;2022-08-11T15:23:33;1.83;;;1.40;;
37445;SDS011;23307;51.136;14.942;2022-08-11T15:26:29;1.23;;;1.13;;
37445;SDS011;23307;51.136;14.942;2022-08-11T15:29:21;1.67;;;1.17;;
37445;SDS011;23307;51.136;14.942;2022-08-11T15:32:08;1.85;;;1.30;;
37445;SDS011;23307;51.136;14.942;2022-08-11T15:34:47;1.45;;;1.20;;
37445;SDS011;23307;51.136;14.942;2022-08-11T15:37:36;2.00;;;1.20;;
37445;SDS011;23307;51.136;14.942;2022-08-11T15:49:08;2.28;;;1.10;;
37445;SDS011;23307;51.136;14.942;2022-08-11T15:51:41;3.13;;;1.45;;
37445;SDS011;23307;51.136;14.942;2022-08-11T15:54:15;4.00;;;1.40;;
37445;SDS011;23307;51.136;14.942;2022-08-11T15:56:43;2.58;;;1.10;;
37445;SDS011;23307;51.136;14.942;2022-08-11T15:59:13;1.92;;;1.17;;
37445;SDS011;23307;51.136;14.942;2022-08-11T16:01:59;1.63;;;1.33;;
37445;SDS011;23307;51.136;14.942;2022-08-11T16:04:45;1.80;;;1.55;;
37445;SDS011;23307;51.136;14.942;2022-08-11T16:07:13;1.40;;;1.25;;
37445;SDS011;23307;51.136;14.942;2022-08-11T16:09:40;2.90;;;1.30;;
37445;SDS011;23307;51.136;14.942;2022-08-11T16:12:24;1.75;;;1.20;;
37445;SDS011;23307;51.136;14.942;2022-08-11T16:15:00;4.15;;;1.30;;
37445;SDS011;23307;51.136;14.942;2022-08-11T16:17:51;1.83;;;1.30;;
37445;SDS011;23307;51.136;14.942;2022-08-11T16:20:27;2.45;;;1.10;;
37445;SDS011;23307;51.136;14.942;2022-08-11T16:22:56;1.73;;;1.10;;
37445;SDS011;23307;51.136;14.942;2022-08-11T16:25:26;1.65;;;1.20;;
37445;SDS011;23307;51.136;14.942;2022-08-11T16:27:57;2.03;;;1.40;;
37445;SDS011;23307;51.136;14.942;2022-08-11T16:30:36;2.60;;;1.40;;
37445;SDS011;23307;51.136;14.942;2022-08-11T16:33:04;2.17;;;1.50;;
37445;SDS011;23307;51.136;14.942;2022-08-11T16:35:32;2.80;;;1.50;;
37445;SDS011;23307;51.136;14.942;2022-08-11T16:38:22;2.10;;;1.20;;
37445;SDS011;23307;51.136;14.942;2022-08-11T16:41:04;2.58;;;1.40;;
37445;SDS011;23307;51.136;14.942;2022-08-11T16:43:40;2.85;;;1.20;;
37445;SDS011;23307;51.136;14.942;2022-08-11T16:46:28;4.93;;;1.63;;
37445;SDS011;23307;51.136;14.942;2022-08-11T16:49:25;3.00;;;1.20;;
37445;SDS011;23307;51.136;14.942;2022-08-11T16:51:59;2.47;;;1.30;;
37445;SDS011;23307;51.136;14.942;2022-08-11T16:54:28;1.67;;;1.10;;
37445;SDS011;23307;51.136;14.942;2022-08-11T16:56:55;2.70;;;1.45;;
37445;SDS011;23307;51.136;14.942;2022-08-11T16:59:41;4.60;;;1.40;;
37445;SDS011;23307;51.136;14.942;2022-08-11T17:02:08;3.40;;;1.42;;
37445;SDS011;23307;51.136;14.942;2022-08-11T17:04:59;3.05;;;1.60;;
37445;SDS011;23307;51.136;14.942;2022-08-11T17:07:49;1.95;;;1.30;;
37445;SDS011;23307;51.136;14.942;2022-08-11T17:10:37;2.38;;;1.60;;
37445;SDS011;23307;51.136;14.942;2022-08-11T17:13:28;3.95;;;1.45;;
37445;SDS011;23307;51.136;14.942;2022-08-11T17:15:59;1.50;;;1.40;;
37445;SDS011;23307;51.136;14.942;2022-08-11T17:21:33;3.20;;;1.40;;
37445;SDS011;23307;51.136;14.942;2022-08-11T17:24:28;1.90;;;1.40;;
37445;SDS011;23307;51.136;14.942;2022-08-11T17:26:56;3.08;;;1.40;;
37445;SDS011;23307;51.136;14.942;2022-08-11T17:29:24;3.47;;;1.42;;
37445;SDS011;23307;51.136;14.942;2022-08-11T17:31:56;2.42;;;1.63;;
37445;SDS011;23307;51.136;14.942;2022-08-11T17:34:44;3.58;;;1.55;;
37445;SDS011;23307;51.136;14.942;2022-08-11T17:37:31;3.05;;;1.63;;
37445;SDS011;23307;51.136;14.942;2022-08-11T17:40:00;1.50;;;1.40;;
37445;SDS011;23307;51.136;14.942;2022-08-11T17:42:28;2.00;;;1.70;;
37445;SDS011;23307;51.136;14.942;2022-08-11T17:45:14;3.47;;;1.50;;
37445;SDS011;23307;51.136;14.942;2022-08-11T17:48:01;3.25;;;1.60;;
37445;SDS011;23307;51.136;14.942;2022-08-11T17:50:47;5.93;;;1.52;;
37445;SDS011;23307;51.136;14.942;2022-08-11T17:53:15;3.08;;;1.83;;
37445;SDS011;23307;51.136;14.942;2022-08-11T17:56:00;3.10;;;1.88;;
37445;SDS011;23307;51.136;14.942;2022-08-11T17:58:47;3.65;;;1.95;;
37445;SDS011;23307;51.136;14.942;2022-08-11T18:01:35;2.40;;;2.20;;